sensor_id;sensor_type;location;lat;lon;timestamp;pressure;altitude;pressure_sealevel;temperature;humidity
43298;BME280;28892;55.640;37.532;2023-08-30T00:02:24;98636.06;;;17.20;69.18
43298;BME280;28892;55.640;37.532;2023-08-30T00:04:50;98631.19;;;17.16;69.19
43298;BME280;28892;55.640;37.532;2023-08-30T00:07:15;98637.44;;;17.22;69.00
43298;BME280;28892;55.640;37.532;2023-08-30T00:09:41;98626.88;;;17.15;69.16
43298;BME280;28892;55.640;37.532;2023-08-30T00:12:08;98628.50;;;17.16;68.91
43298;BME280;28892;55.640;37.532;2023-08-30T00:14:34;98636.47;;;17.28;69.13
43298;BME280;28892;55.640;37.532;2023-08-30T00:17:00;98631.38;;;17.27;68.91
43298;BME280;28892;55.640;37.532;2023-08-30T00:19:26;98643.47;;;17.29;68.75
43298;BME280;28892;55.640;37.532;2023-08-30T00:21:51;98638.84;;;17.25;69.19
43298;BME280;28892;55.640;37.532;2023-08-30T00:24:17;98633.94;;;17.22;69.14
43298;BME280;28892;55.640;37.532;2023-08-30T00:26:43;98636.06;;;17.20;69.34
43298;BME280;28892;55.640;37.532;2023-08-30T00:29:09;98637.69;;;17.21;69.48
43298;BME280;28892;55.640;37.532;2023-08-30T00:31:34;98629.06;;;17.18;69.42
43298;BME280;28892;55.640;37.532;2023-08-30T00:34:00;98633.63;;;17.18;69.66
43298;BME280;28892;55.640;37.532;2023-08-30T00:36:26;98639.06;;;17.23;69.63
43298;BME280;28892;55.640;37.532;2023-08-30T00:38:51;98640.13;;;17.22;69.38
43298;BME280;28892;55.640;37.532;2023-08-30T00:41:17;98643.16;;;17.26;69.28
43298;BME280;28892;55.640;37.532;2023-08-30T00:43:52;98646.97;;;17.30;69.69
43298;BME280;28892;55.640;37.532;2023-08-30T00:46:18;98653.53;;;17.22;69.26
43298;BME280;28892;55.640;37.532;2023-08-30T00:48:45;98648.81;;;17.12;69.03
43298;BME280;28892;55.640;37.532;2023-08-30T00:51:11;98664.72;;;17.19;68.42
43298;BME280;28892;55.640;37.532;2023-08-30T00:53:37;98663.94;;;17.07;69.14
43298;BME280;28892;55.640;37.532;2023-08-30T00:56:03;98667.13;;;16.92;69.64
43298;BME280;28892;55.640;37.532;2023-08-30T00:58:29;98666.78;;;16.88;69.37
43298;BME280;28892;55.640;37.532;2023-08-30T01:00:55;98663.88;;;16.78;70.20
43298;BME280;28892;55.640;37.532;2023-08-30T01:03:21;98655.28;;;16.64;70.60
43298;BME280;28892;55.640;37.532;2023-08-30T01:05:48;98660.22;;;16.43;71.26
43298;BME280;28892;55.640;37.532;2023-08-30T01:08:14;98661.34;;;16.47;71.30
43298;BME280;28892;55.640;37.532;2023-08-30T01:10:52;98667.78;;;16.34;72.63
43298;BME280;28892;55.640;37.532;2023-08-30T01:13:20;98653.81;;;16.08;73.80
43298;BME280;28892;55.640;37.532;2023-08-30T01:15:48;98663.84;;;16.25;72.89
43298;BME280;28892;55.640;37.532;2023-08-30T01:18:17;98672.06;;;16.23;72.97
43298;BME280;28892;55.640;37.532;2023-08-30T01:20:48;98669.31;;;16.18;72.73
43298;BME280;28892;55.640;37.532;2023-08-30T01:23:26;98667.78;;;16.34;72.25
43298;BME280;28892;55.640;37.532;2023-08-30T01:28:37;98661.59;;;16.33;71.37
43298;BME280;28892;55.640;37.532;2023-08-30T01:31:10;98668.34;;;16.24;71.80
43298;BME280;28892;55.640;37.532;2023-08-30T01:33:45;98665.44;;;16.14;72.82
43298;BME280;28892;55.640;37.532;2023-08-30T01:36:12;98665.56;;;16.07;72.60
43298;BME280;28892;55.640;37.532;2023-08-30T01:38:39;98678.13;;;16.06;73.04
43298;BME280;28892;55.640;37.532;2023-08-30T01:41:08;98664.97;;;16.05;72.61
43298;BME280;28892;55.640;37.532;2023-08-30T01:43:39;98684.06;;;16.09;72.84
43298;BME280;28892;55.640;37.532;2023-08-30T01:46:07;98680.22;;;16.04;72.45
43298;BME280;28892;55.640;37.532;2023-08-30T01:48:35;98685.81;;;16.15;71.77
43298;BME280;28892;55.640;37.532;2023-08-30T01:51:05;98688.25;;;16.04;72.22
43298;BME280;28892;55.640;37.532;2023-08-30T01:53:35;98680.56;;;15.96;73.48
43298;BME280;28892;55.640;37.532;2023-08-30T01:56:02;98666.84;;;15.92;73.40
43298;BME280;28892;55.640;37.532;2023-08-30T01:58:31;98675.31;;;16.01;73.52
43298;BME280;28892;55.640;37.532;2023-08-30T02:01:03;98673.72;;;16.12;73.24
43298;BME280;28892;55.640;37.532;2023-08-30T02:03:29;98675.81;;;16.22;72.53
43298;BME280;28892;55.640;37.532;2023-08-30T02:06:04;98680.69;;;16.37;72.85
43298;BME280;28892;55.640;37.532;2023-08-30T02:08:56;98678.03;;;16.37;72.02
43298;BME280;28892;55.640;37.532;2023-08-30T02:11:26;98677.78;;;16.27;72.05
43298;BME280;28892;55.640;37.532;2023-08-30T02:13:59;98678.47;;;16.22;72.23
43298;BME280;28892;55.640;37.532;2023-08-30T02:16:30;98677.44;;;16.23;71.72
43298;BME280;28892;55.640;37.532;2023-08-30T02:18:57;98679.66;;;16.14;71.87
43298;BME280;28892;55.640;37.532;2023-08-30T02:21:23;98683.22;;;16.08;72.13
43298;BME280;28892;55.640;37.532;2023-08-30T02:23:50;98677.19;;;16.13;72.35
43298;BME280;28892;55.640;37.532;2023-08-30T02:26:19;98676.72;;;16.28;71.86
43298;BME280;28892;55.640;37.532;2023-08-30T02:28:47;98677.78;;;16.27;71.54
43298;BME280;28892;55.640;37.532;2023-08-30T02:31:13;98680.34;;;16.33;71.65
43298;BME280;28892;55.640;37.532;2023-08-30T02:33:41;98687.94;;;16.37;71.00
43298;BME280;28892;55.640;37.532;2023-08-30T02:36:07;98682.78;;;16.35;70.99
43298;BME280;28892;55.640;37.532;2023-08-30T02:38:39;98685.94;;;16.32;71.34
43298;BME280;28892;55.640;37.532;2023-08-30T02:41:04;98689.91;;;16.29;71.00
43298;BME280;28892;55.640;37.532;2023-08-30T02:43:33;98698.63;;;16.37;70.82
43298;BME280;28892;55.640;37.532;2023-08-30T02:45:59;98700.59;;;16.29;70.67
43298;BME280;28892;55.640;37.532;2023-08-30T02:48:27;98699.41;;;16.25;70.83
43298;BME280;28892;55.640;37.532;2023-08-30T02:50:52;98701.50;;;16.23;71.33
43298;BME280;28892;55.640;37.532;2023-08-30T02:53:24;98701.28;;;16.25;70.85
43298;BME280;28892;55.640;37.532;2023-08-30T02:55:49;98690.94;;;16.16;70.57
43298;BME280;28892;55.640;37.532;2023-08-30T02:58:15;98701.28;;;16.25;70.98
43298;BME280;28892;55.640;37.532;2023-08-30T03:00:41;98704.31;;;16.28;71.04
43298;BME280;28892;55.640;37.532;2023-08-30T03:03:08;98686.38;;;16.29;71.06
43298;BME280;28892;55.640;37.532;2023-08-30T03:05:36;98696.63;;;16.44;70.16
43298;BME280;28892;55.640;37.532;2023-08-30T03:08:03;98675.13;;;16.39;69.78
43298;BME280;28892;55.640;37.532;2023-08-30T03:10:29;98679.16;;;16.41;70.01
43298;BME280;28892;55.640;37.532;2023-08-30T03:12:55;98683.03;;;16.45;69.78
43298;BME280;28892;55.640;37.532;2023-08-30T03:15:21;98690.81;;;16.47;69.63
43298;BME280;28892;55.640;37.532;2023-08-30T03:17:47;98686.41;;;16.41;69.42
43298;BME280;28892;55.640;37.532;2023-08-30T03:20:13;98688.59;;;16.44;69.66
43298;BME280;28892;55.640;37.532;2023-08-30T03:22:41;98695.13;;;16.48;69.53
43298;BME280;28892;55.640;37.532;2023-08-30T03:25:07;98692.69;;;16.46;69.33
43298;BME280;28892;55.640;37.532;2023-08-30T03:27:35;98696.63;;;16.44;69.67
43298;BME280;28892;55.640;37.532;2023-08-30T03:30:05;98700.13;;;16.44;69.58
43298;BME280;28892;55.640;37.532;2023-08-30T03:32:33;98698.94;;;16.40;69.37
43298;BME280;28892;55.640;37.532;2023-08-30T03:35:02;98706.19;;;16.40;69.01
43298;BME280;28892;55.640;37.532;2023-08-30T03:37:32;98703.03;;;16.31;68.27
43298;BME280;28892;55.640;37.532;2023-08-30T03:39:58;98703.84;;;16.31;68.31
43298;BME280;28892;55.640;37.532;2023-08-30T03:42:26;98695.94;;;16.25;68.62
43298;BME280;28892;55.640;37.532;2023-08-30T03:44:52;98684.09;;;16.20;68.77
43298;BME280;28892;55.640;37.532;2023-08-30T03:47:18;98685.47;;;16.11;68.96
43298;BME280;28892;55.640;37.532;2023-08-30T03:49:44;98691.63;;;16.12;69.35
43298;BME280;28892;55.640;37.532;2023-08-30T03:52:10;98689.53;;;16.14;69.80
43298;BME280;28892;55.640;37.532;2023-08-30T03:54:35;98691.38;;;16.25;68.85
43298;BME280;28892;55.640;37.532;2023-08-30T03:57:01;98685.69;;;16.33;68.57
43298;BME280;28892;55.640;37.532;2023-08-30T03:59:28;98694.78;;;16.32;68.71
43298;BME280;28892;55.640;37.532;2023-08-30T04:01:54;98702.44;;;16.29;69.06
43298;BME280;28892;55.640;37.532;2023-08-30T04:04:20;98701.19;;;16.31;68.81
43298;BME280;28892;55.640;37.532;2023-08-30T04:06:47;98702.69;;;16.39;68.77
43298;BME280;28892;55.640;37.532;2023-08-30T04:09:21;98698.50;;;16.31;69.15
43298;BME280;28892;55.640;37.532;2023-08-30T04:11:47;98707.22;;;16.27;69.25
43298;BME280;28892;55.640;37.532;2023-08-30T04:14:14;98698.38;;;16.14;69.69
43298;BME280;28892;55.640;37.532;2023-08-30T04:16:44;98693.94;;;16.08;70.18
43298;BME280;28892;55.640;37.532;2023-08-30T04:19:10;98694.53;;;16.10;70.30
43298;BME280;28892;55.640;37.532;2023-08-30T04:21:36;98693.50;;;16.11;70.69
43298;BME280;28892;55.640;37.532;2023-08-30T04:24:01;98696.38;;;16.10;70.96
43298;BME280;28892;55.640;37.532;2023-08-30T04:26:30;98704.78;;;16.25;70.17
43298;BME280;28892;55.640;37.532;2023-08-30T04:28:56;98697.91;;;16.29;69.78
43298;BME280;28892;55.640;37.532;2023-08-30T04:31:22;98695.13;;;16.24;69.90
43298;BME280;28892;55.640;37.532;2023-08-30T04:33:48;98696.66;;;16.32;69.37
43298;BME280;28892;55.640;37.532;2023-08-30T04:36:13;98708.38;;;16.43;69.88
43298;BME280;28892;55.640;37.532;2023-08-30T04:38:39;98702.47;;;16.41;69.83
43298;BME280;28892;55.640;37.532;2023-08-30T04:41:05;98698.63;;;16.48;69.63
43298;BME280;28892;55.640;37.532;2023-08-30T04:43:54;98703.13;;;16.72;69.71
43298;BME280;28892;55.640;37.532;2023-08-30T04:46:20;98710.22;;;16.78;69.14
43298;BME280;28892;55.640;37.532;2023-08-30T04:48:46;98706.97;;;16.76;68.50
43298;BME280;28892;55.640;37.532;2023-08-30T04:51:13;98714.78;;;16.78;68.81
43298;BME280;28892;55.640;37.532;2023-08-30T04:53:39;98707.22;;;16.74;68.52
43298;BME280;28892;55.640;37.532;2023-08-30T04:56:13;98711.00;;;16.90;68.32
43298;BME280;28892;55.640;37.532;2023-08-30T04:58:39;98714.69;;;17.25;68.05
43298;BME280;28892;55.640;37.532;2023-08-30T05:01:10;98712.75;;;16.97;67.88
43298;BME280;28892;55.640;37.532;2023-08-30T05:03:43;98714.75;;;17.01;67.91
43298;BME280;28892;55.640;37.532;2023-08-30T05:06:11;98707.16;;;17.10;66.18
43298;BME280;28892;55.640;37.532;2023-08-30T05:08:42;98711.78;;;17.15;65.43
43298;BME280;28892;55.640;37.532;2023-08-30T05:11:08;98703.38;;;17.23;64.54
43298;BME280;28892;55.640;37.532;2023-08-30T05:13:36;98701.19;;;17.20;64.69
43298;BME280;28892;55.640;37.532;2023-08-30T05:16:02;98708.75;;;17.23;64.18
43298;BME280;28892;55.640;37.532;2023-08-30T05:18:28;98720.59;;;17.27;64.28
43298;BME280;28892;55.640;37.532;2023-08-30T05:20:54;98711.25;;;17.42;63.35
43298;BME280;28892;55.640;37.532;2023-08-30T05:23:20;98712.53;;;17.68;62.54
43298;BME280;28892;55.640;37.532;2023-08-30T05:25:47;98715.78;;;17.87;62.49
43298;BME280;28892;55.640;37.532;2023-08-30T05:31:15;98698.78;;;18.11;59.99
43298;BME280;28892;55.640;37.532;2023-08-30T05:33:59;98702.81;;;18.13;59.35
43298;BME280;28892;55.640;37.532;2023-08-30T05:36:39;98696.47;;;18.20;59.24
43298;BME280;28892;55.640;37.532;2023-08-30T05:39:21;98690.19;;;18.48;58.27
43298;BME280;28892;55.640;37.532;2023-08-30T05:41:56;98695.47;;;18.60;58.62
43298;BME280;28892;55.640;37.532;2023-08-30T05:44:22;98701.75;;;18.71;57.54
43298;BME280;28892;55.640;37.532;2023-08-30T05:46:49;98693.84;;;18.81;57.03
43298;BME280;28892;55.640;37.532;2023-08-30T05:49:15;98687.28;;;18.94;56.50
43298;BME280;28892;55.640;37.532;2023-08-30T05:51:41;98684.22;;;18.85;56.50
43298;BME280;28892;55.640;37.532;2023-08-30T05:54:07;98694.13;;;18.63;57.22
43298;BME280;28892;55.640;37.532;2023-08-30T05:56:35;98705.78;;;18.51;57.30
43298;BME280;28892;55.640;37.532;2023-08-30T05:59:01;98706.22;;;18.26;57.77
43298;BME280;28892;55.640;37.532;2023-08-30T06:01:27;98697.53;;;18.19;58.17
43298;BME280;28892;55.640;37.532;2023-08-30T06:03:53;98711.13;;;18.29;57.78
43298;BME280;28892;55.640;37.532;2023-08-30T06:06:20;98709.16;;;18.24;57.44
43298;BME280;28892;55.640;37.532;2023-08-30T06:08:46;98725.00;;;18.09;57.94
43298;BME280;28892;55.640;37.532;2023-08-30T06:11:12;98715.19;;;18.14;58.21
43298;BME280;28892;55.640;37.532;2023-08-30T06:13:39;98718.44;;;18.34;57.77
43298;BME280;28892;55.640;37.532;2023-08-30T06:16:05;98720.69;;;18.25;57.91
43298;BME280;28892;55.640;37.532;2023-08-30T06:18:31;98723.50;;;18.13;58.19
43298;BME280;28892;55.640;37.532;2023-08-30T06:20:58;98737.34;;;17.93;58.93
43298;BME280;28892;55.640;37.532;2023-08-30T06:23:24;98722.41;;;17.97;59.19
43298;BME280;28892;55.640;37.532;2023-08-30T06:25:56;98721.25;;;17.93;59.25
43298;BME280;28892;55.640;37.532;2023-08-30T06:28:23;98718.88;;;17.96;59.49
43298;BME280;28892;55.640;37.532;2023-08-30T06:30:51;98723.44;;;17.96;59.13
43298;BME280;28892;55.640;37.532;2023-08-30T06:33:24;98712.72;;;17.96;59.00
43298;BME280;28892;55.640;37.532;2023-08-30T06:36:41;98727.94;;;18.41;58.13
43298;BME280;28892;55.640;37.532;2023-08-30T06:39:07;98720.50;;;17.97;57.99
43298;BME280;28892;55.640;37.532;2023-08-30T06:41:38;98723.34;;;17.91;58.96
43298;BME280;28892;55.640;37.532;2023-08-30T06:44:04;98728.16;;;17.88;58.75
43298;BME280;28892;55.640;37.532;2023-08-30T06:46:33;98714.84;;;17.94;58.50
43298;BME280;28892;55.640;37.532;2023-08-30T06:48:58;98724.41;;;17.90;59.03
43298;BME280;28892;55.640;37.532;2023-08-30T06:51:31;98721.78;;;18.07;58.79
43298;BME280;28892;55.640;37.532;2023-08-30T06:54:33;98710.69;;;18.20;57.90
43298;BME280;28892;55.640;37.532;2023-08-30T06:57:00;98715.59;;;18.23;57.20
43298;BME280;28892;55.640;37.532;2023-08-30T06:59:27;98726.66;;;18.10;57.68
43298;BME280;28892;55.640;37.532;2023-08-30T07:01:55;98731.53;;;18.30;57.80
43298;BME280;28892;55.640;37.532;2023-08-30T07:04:21;98722.50;;;18.36;57.66
43298;BME280;28892;55.640;37.532;2023-08-30T07:06:47;98721.50;;;18.42;57.24
43298;BME280;28892;55.640;37.532;2023-08-30T07:09:13;98721.38;;;18.32;57.41
43298;BME280;28892;55.640;37.532;2023-08-30T07:11:42;98726.06;;;18.42;57.42
43298;BME280;28892;55.640;37.532;2023-08-30T07:14:09;98724.44;;;18.41;57.26
43298;BME280;28892;55.640;37.532;2023-08-30T07:16:36;98733.09;;;18.43;57.41
43298;BME280;28892;55.640;37.532;2023-08-30T07:19:07;98741.38;;;18.41;57.11
43298;BME280;28892;55.640;37.532;2023-08-30T07:21:36;98729.06;;;18.46;57.09
43298;BME280;28892;55.640;37.532;2023-08-30T07:24:08;98738.19;;;18.45;57.17
43298;BME280;28892;55.640;37.532;2023-08-30T07:26:36;98742.75;;;19.01;56.67
43298;BME280;28892;55.640;37.532;2023-08-30T07:29:05;98726.63;;;18.83;56.43
43298;BME280;28892;55.640;37.532;2023-08-30T07:31:33;98739.38;;;18.71;56.87
43298;BME280;28892;55.640;37.532;2023-08-30T07:34:02;98737.28;;;18.56;56.17
43298;BME280;28892;55.640;37.532;2023-08-30T07:36:31;98737.97;;;18.68;56.77
43298;BME280;28892;55.640;37.532;2023-08-30T07:38:58;98747.59;;;18.64;56.63
43298;BME280;28892;55.640;37.532;2023-08-30T07:41:27;98739.72;;;18.57;56.95
43298;BME280;28892;55.640;37.532;2023-08-30T07:43:53;98738.50;;;18.48;57.46
43298;BME280;28892;55.640;37.532;2023-08-30T07:46:19;98733.78;;;18.55;57.25
43298;BME280;28892;55.640;37.532;2023-08-30T07:48:54;98725.69;;;18.73;57.28
43298;BME280;28892;55.640;37.532;2023-08-30T07:51:25;98735.63;;;18.72;57.12
43298;BME280;28892;55.640;37.532;2023-08-30T07:54:02;98737.94;;;18.85;56.74
43298;BME280;28892;55.640;37.532;2023-08-30T07:56:35;98731.03;;;18.90;56.36
43298;BME280;28892;55.640;37.532;2023-08-30T07:59:58;98748.94;;;19.01;56.02
43298;BME280;28892;55.640;37.532;2023-08-30T08:03:20;98743.06;;;19.04;55.58
43298;BME280;28892;55.640;37.532;2023-08-30T08:05:53;98742.94;;;19.16;55.59
43298;BME280;28892;55.640;37.532;2023-08-30T08:08:26;98755.22;;;19.57;55.21
43298;BME280;28892;55.640;37.532;2023-08-30T08:10:56;98746.22;;;19.95;54.03
43298;BME280;28892;55.640;37.532;2023-08-30T08:13:25;98743.44;;;20.18;53.55
43298;BME280;28892;55.640;37.532;2023-08-30T08:15:51;98748.91;;;20.28;53.19
43298;BME280;28892;55.640;37.532;2023-08-30T08:18:17;98753.47;;;20.28;52.99
43298;BME280;28892;55.640;37.532;2023-08-30T08:20:44;98752.72;;;20.05;53.77
43298;BME280;28892;55.640;37.532;2023-08-30T08:23:10;98750.56;;;20.02;53.63
43298;BME280;28892;55.640;37.532;2023-08-30T08:25:36;98759.47;;;20.02;53.81
43298;BME280;28892;55.640;37.532;2023-08-30T08:28:02;98760.75;;;19.94;53.70
43298;BME280;28892;55.640;37.532;2023-08-30T08:30:36;98753.03;;;20.08;54.03
43298;BME280;28892;55.640;37.532;2023-08-30T08:33:12;98753.19;;;20.24;53.46
43298;BME280;28892;55.640;37.532;2023-08-30T12:06:11;98818.53;;;22.64;45.83
43298;BME280;28892;55.640;37.532;2023-08-30T12:08:57;98809.13;;;22.51;45.49
43298;BME280;28892;55.640;37.532;2023-08-30T12:11:34;98797.75;;;22.39;45.17
43298;BME280;28892;55.640;37.532;2023-08-30T12:14:03;98794.75;;;22.19;46.09
43298;BME280;28892;55.640;37.532;2023-08-30T12:16:33;98806.09;;;22.11;46.26
43298;BME280;28892;55.640;37.532;2023-08-30T12:19:34;98789.88;;;22.22;47.61
43298;BME280;28892;55.640;37.532;2023-08-30T12:22:09;98788.28;;;22.15;46.08
43298;BME280;28892;55.640;37.532;2023-08-30T12:24:49;98785.84;;;22.24;46.30
43298;BME280;28892;55.640;37.532;2023-08-30T12:27:45;98781.50;;;22.13;46.18
43298;BME280;28892;55.640;37.532;2023-08-30T12:30:23;98775.59;;;22.21;46.58
43298;BME280;28892;55.640;37.532;2023-08-30T12:33:00;98779.06;;;22.32;47.55
43298;BME280;28892;55.640;37.532;2023-08-30T12:35:29;98773.69;;;22.32;45.59
43298;BME280;28892;55.640;37.532;2023-08-30T12:38:08;98763.16;;;22.41;45.66
43298;BME280;28892;55.640;37.532;2023-08-30T12:40:38;98768.75;;;22.91;44.09
43298;BME280;28892;55.640;37.532;2023-08-30T12:43:04;98775.84;;;22.35;44.96
43298;BME280;28892;55.640;37.532;2023-08-30T12:45:30;98766.13;;;22.24;45.68
43298;BME280;28892;55.640;37.532;2023-08-30T12:47:56;98759.66;;;22.04;45.55
43298;BME280;28892;55.640;37.532;2023-08-30T12:50:24;98756.66;;;22.00;45.76
43298;BME280;28892;55.640;37.532;2023-08-30T12:52:50;98751.81;;;21.87;45.97
43298;BME280;28892;55.640;37.532;2023-08-30T12:55:19;98750.16;;;21.81;46.38
43298;BME280;28892;55.640;37.532;2023-08-30T12:57:45;98739.09;;;21.77;46.52
43298;BME280;28892;55.640;37.532;2023-08-30T13:00:12;98735.81;;;21.64;46.46
43298;BME280;28892;55.640;37.532;2023-08-30T13:02:39;98735.84;;;21.70;46.91
43298;BME280;28892;55.640;37.532;2023-08-30T13:05:05;98731.00;;;21.72;46.66
43298;BME280;28892;55.640;37.532;2023-08-30T13:07:31;98723.19;;;21.75;46.97
43298;BME280;28892;55.640;37.532;2023-08-30T13:09:57;98716.16;;;21.69;46.61
43298;BME280;28892;55.640;37.532;2023-08-30T13:12:23;98715.88;;;21.76;46.90
43298;BME280;28892;55.640;37.532;2023-08-30T13:14:49;98717.78;;;21.75;46.90
43298;BME280;28892;55.640;37.532;2023-08-30T13:17:18;98712.31;;;21.60;46.89
43298;BME280;28892;55.640;37.532;2023-08-30T13:20:18;98702.59;;;21.48;47.55
43298;BME280;28892;55.640;37.532;2023-08-30T13:22:52;98692.34;;;21.50;47.62
43298;BME280;28892;55.640;37.532;2023-08-30T13:25:18;98688.56;;;21.41;48.24
43298;BME280;28892;55.640;37.532;2023-08-30T13:27:52;98686.41;;;21.48;46.99
43298;BME280;28892;55.640;37.532;2023-08-30T13:30:20;98687.47;;;21.42;47.22
43298;BME280;28892;55.640;37.532;2023-08-30T13:32:56;98684.22;;;21.35;47.91
43298;BME280;28892;55.640;37.532;2023-08-30T13:35:24;98674.28;;;21.46;47.96
43298;BME280;28892;55.640;37.532;2023-08-30T13:37:56;98678.59;;;21.57;47.53
43298;BME280;28892;55.640;37.532;2023-08-30T13:40:22;98681.56;;;21.56;47.22
43298;BME280;28892;55.640;37.532;2023-08-30T13:42:56;98686.66;;;21.42;47.96
43298;BME280;28892;55.640;37.532;2023-08-30T13:45:22;98687.75;;;21.41;47.99
43298;BME280;28892;55.640;37.532;2023-08-30T13:47:51;98689.63;;;21.45;48.46
43298;BME280;28892;55.640;37.532;2023-08-30T13:50:19;98683.69;;;21.33;48.94
43298;BME280;28892;55.640;37.532;2023-08-30T13:52:47;98682.38;;;21.46;48.18
43298;BME280;28892;55.640;37.532;2023-08-30T13:55:13;98679.38;;;21.37;48.68
43298;BME280;28892;55.640;37.532;2023-08-30T13:57:38;98669.66;;;21.31;48.54
43298;BME280;28892;55.640;37.532;2023-08-30T14:00:05;98672.34;;;21.31;48.92
43298;BME280;28892;55.640;37.532;2023-08-30T14:02:36;98655.63;;;21.34;48.05
43298;BME280;28892;55.640;37.532;2023-08-30T14:05:02;98666.66;;;21.17;48.58
43298;BME280;28892;55.640;37.532;2023-08-30T14:07:31;98665.03;;;21.16;49.07
43298;BME280;28892;55.640;37.532;2023-08-30T14:09:57;98670.44;;;21.31;48.52
43298;BME280;28892;55.640;37.532;2023-08-30T14:12:34;98662.63;;;21.25;48.33
43298;BME280;28892;55.640;37.532;2023-08-30T14:15:02;98632.41;;;21.23;48.19
43298;BME280;28892;55.640;37.532;2023-08-30T14:17:30;98638.63;;;21.33;48.07
43298;BME280;28892;55.640;37.532;2023-08-30T14:19:56;98645.63;;;21.34;48.03
43298;BME280;28892;55.640;37.532;2023-08-30T14:22:21;98652.88;;;21.18;48.83
43298;BME280;28892;55.640;37.532;2023-08-30T14:24:53;98661.25;;;21.17;49.73
43298;BME280;28892;55.640;37.532;2023-08-30T14:27:18;98653.19;;;21.17;49.90
43298;BME280;28892;55.640;37.532;2023-08-30T14:30:01;98623.50;;;21.22;48.76
43298;BME280;28892;55.640;37.532;2023-08-30T14:32:30;98590.03;;;21.02;49.82
43298;BME280;28892;55.640;37.532;2023-08-30T14:34:57;98594.06;;;20.94;50.52
43298;BME280;28892;55.640;37.532;2023-08-30T14:37:22;98592.19;;;21.00;49.95
43298;BME280;28892;55.640;37.532;2023-08-30T14:39:48;98594.06;;;20.94;50.24
43298;BME280;28892;55.640;37.532;2023-08-30T14:42:17;98598.13;;;21.02;50.67
43298;BME280;28892;55.640;37.532;2023-08-30T14:44:43;98594.38;;;21.03;50.22
43298;BME280;28892;55.640;37.532;2023-08-30T14:47:08;98546.09;;;20.86;50.30
43298;BME280;28892;55.640;37.532;2023-08-30T14:49:34;98516.16;;;20.88;50.70
43298;BME280;28892;55.640;37.532;2023-08-30T14:52:00;98495.16;;;20.85;50.51
43298;BME280;28892;55.640;37.532;2023-08-30T14:54:26;98510.16;;;20.65;51.57
43298;BME280;28892;55.640;37.532;2023-08-30T15:01:17;98551.44;;;20.81;51.64
43298;BME280;28892;55.640;37.532;2023-08-30T15:03:46;98578.59;;;20.64;51.71
43298;BME280;28892;55.640;37.532;2023-08-30T15:10:17;98628.22;;;20.73;51.74
43298;BME280;28892;55.640;37.532;2023-08-30T15:13:17;98627.91;;;20.70;51.83
43298;BME280;28892;55.640;37.532;2023-08-30T15:15:59;98634.69;;;20.72;52.31
43298;BME280;28892;55.640;37.532;2023-08-30T15:18:53;98615.50;;;20.63;51.76
43298;BME280;28892;55.640;37.532;2023-08-30T15:21:19;98612.00;;;20.68;51.74
43298;BME280;28892;55.640;37.532;2023-08-30T15:23:44;98622.47;;;20.54;52.40
43298;BME280;28892;55.640;37.532;2023-08-30T15:26:10;98641.06;;;20.56;52.82
43298;BME280;28892;55.640;37.532;2023-08-30T15:28:41;98643.47;;;20.52;52.60
43298;BME280;28892;55.640;37.532;2023-08-30T15:31:09;98652.06;;;20.49;53.00
43298;BME280;28892;55.640;37.532;2023-08-30T15:33:35;98647.22;;;20.46;52.66
43298;BME280;28892;55.640;37.532;2023-08-30T15:36:09;98652.56;;;20.41;52.75
43298;BME280;28892;55.640;37.532;2023-08-30T15:38:53;98653.69;;;20.50;52.60
43298;BME280;28892;55.640;37.532;2023-08-30T15:41:20;98660.69;;;20.51;52.72
43298;BME280;28892;55.640;37.532;2023-08-30T15:44:14;98659.63;;;20.52;52.15
43298;BME280;28892;55.640;37.532;2023-08-30T15:46:54;98654.72;;;20.38;52.88
43298;BME280;28892;55.640;37.532;2023-08-30T15:49:25;98656.81;;;20.31;53.07
43298;BME280;28892;55.640;37.532;2023-08-30T15:52:01;98659.78;;;20.30;53.22
43298;BME280;28892;55.640;37.532;2023-08-30T15:54:45;98650.41;;;20.43;52.72
43298;BME280;28892;55.640;37.532;2023-08-30T15:58:00;98656.97;;;20.57;52.17
43298;BME280;28892;55.640;37.532;2023-08-30T16:00:36;98647.41;;;20.29;52.82
43298;BME280;28892;55.640;37.532;2023-08-30T16:03:07;98655.34;;;20.13;53.37
43298;BME280;28892;55.640;37.532;2023-08-30T16:05:45;98652.41;;;20.15;53.87
43298;BME280;28892;55.640;37.532;2023-08-30T16:21:47;98661.00;;;20.12;54.01
43298;BME280;28892;55.640;37.532;2023-08-30T16:25:07;98656.88;;;19.99;54.69
43298;BME280;28892;55.640;37.532;2023-08-30T16:41:00;98677.97;;;19.79;55.09
43298;BME280;28892;55.640;37.532;2023-08-30T16:48:12;98677.47;;;19.55;56.22
43298;BME280;28892;55.640;37.532;2023-08-30T17:27:09;98705.41;;;18.82;58.15
43298;BME280;28892;55.640;37.532;2023-08-30T17:30:09;98703.53;;;18.82;58.32
43298;BME280;28892;55.640;37.532;2023-08-30T17:33:24;98716.03;;;18.94;58.29
43298;BME280;28892;55.640;37.532;2023-08-30T17:36:47;98715.09;;;18.83;59.15
43298;BME280;28892;55.640;37.532;2023-08-30T18:00:59;98744.19;;;18.69;59.58
43298;BME280;28892;55.640;37.532;2023-08-30T18:03:25;98727.78;;;18.48;59.06
43298;BME280;28892;55.640;37.532;2023-08-30T18:06:01;98735.59;;;18.50;59.50
43298;BME280;28892;55.640;37.532;2023-08-30T18:08:32;98729.41;;;18.49;59.91
43298;BME280;28892;55.640;37.532;2023-08-30T18:11:22;98735.97;;;18.59;60.13
43298;BME280;28892;55.640;37.532;2023-08-30T18:13:53;98728.00;;;18.47;59.58
43298;BME280;28892;55.640;37.532;2023-08-30T18:16:22;98721.75;;;18.41;59.98
43298;BME280;28892;55.640;37.532;2023-08-30T18:18:59;98715.91;;;18.44;59.08
43298;BME280;28892;55.640;37.532;2023-08-30T18:21:56;98722.94;;;18.67;59.74
43298;BME280;28892;55.640;37.532;2023-08-30T18:24:33;98709.19;;;18.64;58.87